createdAt,value
2022-12-28T00:00:12.753Z,859.37
2022-12-28T00:01:12.767Z,859.36
2022-12-28T00:02:12.747Z,859.33
2022-12-28T00:03:12.736Z,859.31
2022-12-28T00:04:12.678Z,859.31
2022-12-28T00:05:12.672Z,859.22
2022-12-28T00:06:12.664Z,859.29
2022-12-28T00:07:12.716Z,859.23
2022-12-28T00:08:12.644Z,859.21
2022-12-28T00:09:12.639Z,859.13
2022-12-28T00:10:12.614Z,859.17
2022-12-28T00:11:20.331Z,859.15
2022-12-28T00:12:13.608Z,859.17
2022-12-28T00:13:12.657Z,859.15
2022-12-28T00:14:12.582Z,859.19
2022-12-28T00:15:12.575Z,859.13
2022-12-28T00:16:12.609Z,859.15
2022-12-28T00:17:12.555Z,859.14
2022-12-28T00:18:12.643Z,859.13
2022-12-28T00:19:12.593Z,859.15
2022-12-28T00:20:12.514Z,859.14
2022-12-28T00:21:12.502Z,859.11
2022-12-28T00:22:12.490Z,859.09
2022-12-28T00:23:12.477Z,859.14
2022-12-28T00:24:12.576Z,859.17
2022-12-28T00:25:12.506Z,859.13
2022-12-28T00:26:12.448Z,859.18
2022-12-28T00:27:12.434Z,859.14
2022-12-28T00:28:12.432Z,859.12
2022-12-28T00:29:12.419Z,859.11
2022-12-28T00:30:12.427Z,859.05
2022-12-28T00:31:12.488Z,859.08
2022-12-28T00:32:12.393Z,859.05
2022-12-28T00:33:12.376Z,859.07
2022-12-28T00:34:12.366Z,859.09
2022-12-28T00:35:12.374Z,859.11
2022-12-28T00:36:12.357Z,859.06
2022-12-28T00:37:13.318Z,859.03
2022-12-28T00:38:12.323Z,859.02
2022-12-28T00:39:12.334Z,859.07
2022-12-28T00:40:12.303Z,859.03
2022-12-28T00:41:12.297Z,859.10
2022-12-28T00:42:12.287Z,859.08
2022-12-28T00:43:12.327Z,859.08
2022-12-28T00:44:12.259Z,859.04
2022-12-28T00:45:12.243Z,859.02
2022-12-28T00:46:12.250Z,859.00
2022-12-28T00:47:12.401Z,859.01
2022-12-28T00:48:12.214Z,858.99
2022-12-28T00:49:12.248Z,859.00
2022-12-28T00:50:12.191Z,858.93
2022-12-28T00:51:12.204Z,859.01
2022-12-28T00:52:12.170Z,858.97
2022-12-28T00:53:12.174Z,858.92
2022-12-28T00:54:12.150Z,858.92
2022-12-28T00:55:12.195Z,858.93
2022-12-28T00:56:12.140Z,858.91
2022-12-28T00:57:12.127Z,858.91
2022-12-28T00:58:12.107Z,858.92
2022-12-28T00:59:12.134Z,858.96
2022-12-28T01:00:12.088Z,858.96
2022-12-28T01:01:12.235Z,859.00
2022-12-28T01:02:12.177Z,858.97
2022-12-28T01:03:12.078Z,859.01
2022-12-28T01:04:12.049Z,859.02
2022-12-28T01:05:12.043Z,859.01
2022-12-28T01:06:12.023Z,859.00
2022-12-28T01:07:12.072Z,858.98
2022-12-28T01:08:12.005Z,858.99
2022-12-28T01:09:11.990Z,858.97
2022-12-28T01:10:11.983Z,859.01
2022-12-28T01:11:11.986Z,858.99
2022-12-28T01:12:11.960Z,858.95
2022-12-28T01:13:12.002Z,859.02
2022-12-28T01:14:11.941Z,858.95
2022-12-28T01:15:11.940Z,858.92
2022-12-28T01:16:11.944Z,858.92
2022-12-28T01:17:11.915Z,858.89
2022-12-28T01:18:12.766Z,858.91
2022-12-28T01:19:11.981Z,858.89
2022-12-28T01:20:11.888Z,858.93
2022-12-28T01:21:11.869Z,858.91
2022-12-28T01:22:11.857Z,858.90
2022-12-28T01:23:11.875Z,858.93
2022-12-28T01:24:11.837Z,858.94
2022-12-28T01:25:11.861Z,858.96
2022-12-28T01:26:11.816Z,858.90
2022-12-28T01:27:11.906Z,858.89
2022-12-28T01:28:11.788Z,858.85
2022-12-28T01:29:11.791Z,858.85
2022-12-28T01:30:11.769Z,858.86
2022-12-28T01:31:11.797Z,858.84
2022-12-28T01:32:11.753Z,858.81
2022-12-28T01:33:11.746Z,858.81
2022-12-28T01:34:11.728Z,858.80
2022-12-28T01:35:11.711Z,858.76
2022-12-28T01:36:11.726Z,858.75
2022-12-28T01:37:11.763Z,858.73
2022-12-28T01:38:11.681Z,858.73
2022-12-28T01:39:11.802Z,858.76
2022-12-28T01:40:11.661Z,858.76
2022-12-28T01:41:11.649Z,858.76
2022-12-28T01:42:11.649Z,858.75
2022-12-28T01:43:11.671Z,858.80
2022-12-28T01:44:11.622Z,858.79
2022-12-28T01:45:11.622Z,858.77
2022-12-28T01:46:11.630Z,858.84
2022-12-28T01:47:11.588Z,858.86
2022-12-28T01:48:11.575Z,858.83
2022-12-28T01:49:11.613Z,858.85
2022-12-28T01:50:11.558Z,858.80
2022-12-28T01:51:11.560Z,858.81
2022-12-28T01:52:11.532Z,858.84
2022-12-28T01:53:11.528Z,858.78
2022-12-28T01:54:11.510Z,858.82
2022-12-28T01:55:11.557Z,858.80
2022-12-28T01:56:11.504Z,858.82
2022-12-28T01:57:11.496Z,858.80
2022-12-28T01:58:11.477Z,858.76
2022-12-28T01:59:11.458Z,858.74
2022-12-28T02:00:11.446Z,858.75
2022-12-28T02:01:11.597Z,858.72
2022-12-28T02:02:11.584Z,858.70
2022-12-28T02:03:11.517Z,858.74
2022-12-28T02:04:11.406Z,858.67
2022-12-28T02:05:11.396Z,858.68
2022-12-28T02:06:11.387Z,858.67
2022-12-28T02:07:11.430Z,858.66
2022-12-28T02:08:11.362Z,858.64
2022-12-28T02:09:11.375Z,858.62
2022-12-28T02:10:41.639Z,858.62
2022-12-28T02:11:12.351Z,858.70
2022-12-28T02:12:11.319Z,858.65
2022-12-28T02:13:11.425Z,858.68
2022-12-28T02:14:11.300Z,858.67
2022-12-28T02:15:11.296Z,858.65
2022-12-28T02:16:11.285Z,858.70
2022-12-28T02:17:11.271Z,858.69
2022-12-28T02:18:11.258Z,858.69
2022-12-28T02:19:11.317Z,858.70
2022-12-28T02:20:11.248Z,858.75
2022-12-28T02:21:11.232Z,858.70
2022-12-28T02:22:11.219Z,858.71
2022-12-28T02:23:11.204Z,858.73
2022-12-28T02:24:11.204Z,858.70
2022-12-28T02:25:13.751Z,858.70
2022-12-28T02:26:11.173Z,858.69
2022-12-28T02:27:11.202Z,858.65
2022-12-28T02:28:11.151Z,858.58
2022-12-28T02:29:11.147Z,858.53
2022-12-28T02:30:11.131Z,858.52
2022-12-28T02:31:11.187Z,858.53
2022-12-28T02:32:11.120Z,858.53
2022-12-28T02:33:11.094Z,858.46
2022-12-28T02:34:11.084Z,858.48
2022-12-28T02:35:11.071Z,858.49
2022-12-28T02:36:17.979Z,858.51
2022-12-28T02:37:12.212Z,858.51
2022-12-28T02:38:11.043Z,858.46
2022-12-28T02:39:11.033Z,858.51
2022-12-28T02:40:11.027Z,858.47
2022-12-28T02:41:11.007Z,858.47
2022-12-28T02:42:10.999Z,858.45
2022-12-28T02:43:11.085Z,858.45
2022-12-28T02:44:10.981Z,858.42
2022-12-28T02:45:10.965Z,858.41
2022-12-28T02:46:11.005Z,858.46
2022-12-28T02:47:10.951Z,858.40
2022-12-28T02:48:10.938Z,858.36
2022-12-28T02:49:11.096Z,858.38
2022-12-28T02:50:10.915Z,858.35
2022-12-28T02:51:10.919Z,858.32
2022-12-28T02:52:10.893Z,858.27
2022-12-28T02:53:10.889Z,858.24
2022-12-28T02:54:10.884Z,858.22
2022-12-28T02:55:10.922Z,858.21
2022-12-28T02:56:11.851Z,858.14
2022-12-28T02:57:10.839Z,858.09
2022-12-28T02:58:10.828Z,858.06
2022-12-28T02:59:10.838Z,857.98
2022-12-28T03:00:10.814Z,857.94
2022-12-28T03:01:11.229Z,857.90
2022-12-28T03:02:10.967Z,857.84
2022-12-28T03:03:10.851Z,857.84
2022-12-28T03:04:10.766Z,857.78
2022-12-28T03:05:10.757Z,857.74
2022-12-28T03:06:14.644Z,857.71
2022-12-28T03:07:11.814Z,857.69
2022-12-28T03:08:10.747Z,857.65
2022-12-28T03:09:10.710Z,857.68
2022-12-28T03:10:10.731Z,857.69
2022-12-28T03:11:10.697Z,857.63
2022-12-28T03:12:10.699Z,857.66
2022-12-28T03:13:10.744Z,857.66
2022-12-28T03:14:10.663Z,857.71
2022-12-28T03:15:10.674Z,857.74
2022-12-28T03:16:10.699Z,857.70
2022-12-28T03:17:10.635Z,857.73
2022-12-28T03:18:10.618Z,857.71
2022-12-28T03:19:10.678Z,857.70
2022-12-28T03:20:10.595Z,857.73
2022-12-28T03:21:10.585Z,857.69
2022-12-28T03:22:10.580Z,857.66
2022-12-28T03:23:10.563Z,857.64
2022-12-28T03:24:10.576Z,857.62
2022-12-28T03:25:10.582Z,857.67
2022-12-28T03:26:10.543Z,857.61
2022-12-28T03:27:10.534Z,857.60
2022-12-28T03:28:10.516Z,857.60
2022-12-28T03:29:10.504Z,857.57
2022-12-28T03:30:10.504Z,857.51
2022-12-28T03:31:10.531Z,857.50
2022-12-28T03:32:10.471Z,857.53
2022-12-28T03:33:10.454Z,857.53
2022-12-28T03:34:10.446Z,857.52
2022-12-28T03:35:10.443Z,857.50
2022-12-28T03:36:10.426Z,857.54
2022-12-28T03:37:10.472Z,857.50
2022-12-28T03:38:10.404Z,857.50
2022-12-28T03:39:10.445Z,857.51
2022-12-28T03:40:10.406Z,857.51
2022-12-28T03:41:10.368Z,857.50
2022-12-28T03:42:10.384Z,857.51
2022-12-28T03:43:10.348Z,857.45
2022-12-28T03:44:10.338Z,857.49
2022-12-28T03:45:10.359Z,857.48
2022-12-28T03:46:10.401Z,857.48
2022-12-28T03:47:10.332Z,857.48
2022-12-28T03:48:10.303Z,857.45
2022-12-28T03:49:10.284Z,857.40
2022-12-28T03:50:10.284Z,857.35
2022-12-28T03:51:10.281Z,857.34
2022-12-28T03:52:10.258Z,857.39
2022-12-28T03:53:10.263Z,857.34
2022-12-28T03:54:10.232Z,857.37
2022-12-28T03:55:10.220Z,857.37
2022-12-28T03:56:10.231Z,857.35
2022-12-28T03:57:10.210Z,857.37
2022-12-28T03:58:10.199Z,857.40
2022-12-28T03:59:10.182Z,857.39
2022-12-28T04:00:10.172Z,857.42
2022-12-28T04:01:10.299Z,857.45
2022-12-28T04:02:10.340Z,857.46
2022-12-28T04:03:10.382Z,857.55
2022-12-28T04:04:10.129Z,857.53
2022-12-28T04:05:10.131Z,857.54
2022-12-28T04:06:10.110Z,857.58
2022-12-28T04:07:10.094Z,857.57
2022-12-28T04:08:10.098Z,857.66
2022-12-28T04:09:10.096Z,857.69
2022-12-28T04:10:10.065Z,857.72
2022-12-28T04:11:10.053Z,857.71
2022-12-28T04:12:10.047Z,857.72
2022-12-28T04:13:10.033Z,857.75
2022-12-28T04:14:11.186Z,857.79
2022-12-28T04:15:10.020Z,857.80
2022-12-28T04:16:10.061Z,857.85
2022-12-28T04:17:09.993Z,857.81
2022-12-28T04:18:10.087Z,857.79
2022-12-28T04:19:09.992Z,857.78
2022-12-28T04:20:09.961Z,857.79
2022-12-28T04:21:09.952Z,857.81
2022-12-28T04:22:09.942Z,857.82
2022-12-28T04:23:09.933Z,857.71
2022-12-28T04:24:09.928Z,857.73
2022-12-28T04:25:09.921Z,857.74
2022-12-28T04:26:09.903Z,857.77
2022-12-28T04:27:09.895Z,857.72
2022-12-28T04:28:09.872Z,857.72
2022-12-28T04:29:09.869Z,857.71
2022-12-28T04:30:09.860Z,857.67
2022-12-28T04:31:09.915Z,857.63
2022-12-28T04:32:09.848Z,857.58
2022-12-28T04:33:09.839Z,857.61
2022-12-28T04:34:09.809Z,857.58
2022-12-28T04:35:09.843Z,857.59
2022-12-28T04:36:09.796Z,857.63
2022-12-28T04:37:09.777Z,857.67
2022-12-28T04:38:09.764Z,857.62
2022-12-28T04:39:09.762Z,857.62
2022-12-28T04:40:09.852Z,857.63
2022-12-28T04:41:09.747Z,857.60
2022-12-28T04:42:09.722Z,857.63
2022-12-28T04:43:09.713Z,857.64
2022-12-28T04:44:09.701Z,857.65
2022-12-28T04:45:09.720Z,857.58
2022-12-28T04:46:09.788Z,857.57
2022-12-28T04:47:09.673Z,857.53
2022-12-28T04:48:09.659Z,857.58
2022-12-28T04:49:09.649Z,857.54
2022-12-28T04:50:09.636Z,857.55
2022-12-28T04:51:09.672Z,857.57
2022-12-28T04:52:09.636Z,857.55
2022-12-28T04:53:09.609Z,857.52
2022-12-28T04:54:09.595Z,857.55
2022-12-28T04:55:31.600Z,857.52
2022-12-28T04:56:10.576Z,857.50
2022-12-28T04:57:09.578Z,857.51
2022-12-28T04:58:09.552Z,857.51
2022-12-28T04:59:09.567Z,857.51
2022-12-28T05:00:09.529Z,857.49
2022-12-28T05:01:09.629Z,857.45
2022-12-28T05:02:09.656Z,857.42
2022-12-28T05:03:09.519Z,857.45
2022-12-28T05:04:09.498Z,857.47
2022-12-28T05:05:09.488Z,857.46
2022-12-28T05:06:09.469Z,857.48
2022-12-28T05:07:09.503Z,857.45
2022-12-28T05:08:09.449Z,857.44
2022-12-28T05:09:09.445Z,857.43
2022-12-28T05:10:09.433Z,857.46
2022-12-28T05:11:09.426Z,857.44
2022-12-28T05:12:09.416Z,857.48
2022-12-28T05:13:09.393Z,857.47
2022-12-28T05:14:09.387Z,857.48
2022-12-28T05:15:09.427Z,857.46
2022-12-28T05:16:09.395Z,857.47
2022-12-28T05:17:09.363Z,857.44
2022-12-28T05:18:09.347Z,857.42
2022-12-28T05:19:09.331Z,857.41
2022-12-28T05:20:09.351Z,857.39
2022-12-28T05:21:09.324Z,857.40
2022-12-28T05:22:09.319Z,857.37
2022-12-28T05:23:09.308Z,857.36
2022-12-28T05:24:09.282Z,857.33
2022-12-28T05:25:09.267Z,857.35
2022-12-28T05:26:09.259Z,857.37
2022-12-28T05:27:09.260Z,857.36
2022-12-28T05:28:09.250Z,857.34
2022-12-28T05:29:09.236Z,857.32
2022-12-28T05:30:09.230Z,857.33
2022-12-28T05:31:09.257Z,857.30
2022-12-28T05:32:09.195Z,857.29
2022-12-28T05:33:09.195Z,857.30
2022-12-28T05:34:09.177Z,857.29
2022-12-28T05:35:09.162Z,857.28
2022-12-28T05:36:09.164Z,857.27
2022-12-28T05:37:09.139Z,857.28
2022-12-28T05:38:09.131Z,857.26
2022-12-28T05:39:09.164Z,857.31
2022-12-28T05:40:09.113Z,857.31
2022-12-28T05:41:09.115Z,857.30
2022-12-28T05:42:09.091Z,857.30
2022-12-28T05:43:09.080Z,857.33
2022-12-28T05:44:09.074Z,857.29
2022-12-28T05:45:09.080Z,857.28
2022-12-28T05:46:09.048Z,857.28
2022-12-28T05:47:09.119Z,857.19
2022-12-28T05:48:09.028Z,857.22
2022-12-28T05:49:09.011Z,857.23
2022-12-28T05:50:09.019Z,857.21
2022-12-28T05:51:09.000Z,857.21
2022-12-28T05:52:08.983Z,857.21
2022-12-28T05:53:08.970Z,857.22
2022-12-28T05:54:08.988Z,857.25
2022-12-28T05:55:08.975Z,857.23
2022-12-28T05:56:13.932Z,857.28
2022-12-28T05:57:09.938Z,857.28
2022-12-28T05:58:08.920Z,857.27
2022-12-28T05:59:08.913Z,857.28
2022-12-28T06:00:08.915Z,857.30
2022-12-28T06:01:08.937Z,857.33
2022-12-28T06:02:09.030Z,857.30
2022-12-28T06:03:09.189Z,857.27
2022-12-28T06:04:08.858Z,857.25
2022-12-28T06:05:08.843Z,857.26
2022-12-28T06:06:08.863Z,857.22
2022-12-28T06:07:08.827Z,857.21
2022-12-28T06:08:08.815Z,857.24
2022-12-28T06:09:08.808Z,857.23
2022-12-28T06:10:08.793Z,857.21
2022-12-28T06:11:08.801Z,857.19
2022-12-28T06:12:08.819Z,857.16
2022-12-28T06:13:08.769Z,857.20
2022-12-28T06:14:08.748Z,857.16
2022-12-28T06:15:08.753Z,857.13
2022-12-28T06:16:08.782Z,857.12
2022-12-28T06:17:08.731Z,857.14
2022-12-28T06:18:08.708Z,857.16
2022-12-28T06:19:08.701Z,857.21
2022-12-28T06:20:08.691Z,857.14
2022-12-28T06:21:08.680Z,857.16
2022-12-28T06:22:08.676Z,857.16
2022-12-28T06:23:08.669Z,857.15
2022-12-28T06:24:08.641Z,857.11
2022-12-28T06:25:08.635Z,857.13
2022-12-28T06:26:08.628Z,857.10
2022-12-28T06:27:08.632Z,857.14
2022-12-28T06:28:08.662Z,857.07
2022-12-28T06:29:08.607Z,857.12
2022-12-28T06:30:08.654Z,857.08
2022-12-28T06:31:08.565Z,857.10
2022-12-28T06:32:08.643Z,857.13
2022-12-28T06:33:08.604Z,857.14
2022-12-28T06:34:08.556Z,857.08
2022-12-28T06:35:08.539Z,857.10
2022-12-28T06:36:08.525Z,857.06
2022-12-28T06:37:08.509Z,857.03
2022-12-28T06:38:08.500Z,857.05
2022-12-28T06:39:08.491Z,857.06
2022-12-28T06:40:08.493Z,857.11
2022-12-28T06:41:15.557Z,857.07
2022-12-28T06:42:09.452Z,857.12
2022-12-28T06:43:08.464Z,857.08
2022-12-28T06:44:08.541Z,857.11
2022-12-28T06:45:08.419Z,857.08
2022-12-28T06:46:08.471Z,857.14
2022-12-28T06:47:08.396Z,857.14
2022-12-28T06:48:08.388Z,857.15
2022-12-28T06:49:08.378Z,857.11
2022-12-28T06:50:08.384Z,857.12
2022-12-28T06:51:08.378Z,857.10
2022-12-28T06:52:08.358Z,857.07
2022-12-28T06:53:08.331Z,857.12
2022-12-28T06:54:08.329Z,857.09
2022-12-28T06:55:08.309Z,857.08
2022-12-28T06:56:08.324Z,857.11
2022-12-28T06:57:08.290Z,857.08
2022-12-28T06:58:08.293Z,857.10
2022-12-28T06:59:08.324Z,857.09
2022-12-28T07:00:08.262Z,857.06
2022-12-28T07:01:08.423Z,857.05
2022-12-28T07:02:08.491Z,857.10
2022-12-28T07:03:08.259Z,857.06
2022-12-28T07:04:08.221Z,857.08
2022-12-28T07:05:08.207Z,857.07
2022-12-28T07:06:08.207Z,857.11
2022-12-28T07:07:08.194Z,857.12
2022-12-28T07:08:12.500Z,857.10
2022-12-28T07:09:08.176Z,857.10
2022-12-28T07:10:08.159Z,857.11
2022-12-28T07:11:08.141Z,857.05
2022-12-28T07:12:08.145Z,857.06
2022-12-28T07:13:08.114Z,857.07
2022-12-28T07:14:08.117Z,857.07
2022-12-28T07:15:08.230Z,857.06
2022-12-28T07:16:08.104Z,857.10
2022-12-28T07:17:08.080Z,857.09
2022-12-28T07:18:08.083Z,857.11
2022-12-28T07:19:08.167Z,857.11
2022-12-28T07:20:08.058Z,857.16
2022-12-28T07:21:08.042Z,857.13
2022-12-28T07:22:08.038Z,857.12
2022-12-28T07:23:08.019Z,857.11
2022-12-28T07:24:08.013Z,857.09
2022-12-28T07:25:08.017Z,857.12
2022-12-28T07:26:07.995Z,857.18
2022-12-28T07:27:07.975Z,857.14
2022-12-28T07:28:07.975Z,857.11
2022-12-28T07:29:07.959Z,857.11
2022-12-28T07:30:07.948Z,857.13
2022-12-28T07:31:08.043Z,857.10
2022-12-28T07:32:07.928Z,857.11
2022-12-28T07:33:07.912Z,857.15
2022-12-28T07:34:07.913Z,857.15
2022-12-28T07:35:07.888Z,857.21
2022-12-28T07:36:07.879Z,857.21
2022-12-28T07:37:07.874Z,857.20
2022-12-28T07:38:07.861Z,857.19
2022-12-28T07:39:07.840Z,857.17
2022-12-28T07:40:07.857Z,857.14
2022-12-28T07:41:07.817Z,857.15
2022-12-28T07:42:07.811Z,857.17
2022-12-28T07:43:07.817Z,857.16
2022-12-28T07:44:07.797Z,857.19
2022-12-28T07:45:07.776Z,857.13
2022-12-28T07:46:07.836Z,857.13
2022-12-28T07:47:07.780Z,857.14
2022-12-28T07:48:07.750Z,857.09
2022-12-28T07:49:07.768Z,857.09
2022-12-28T07:50:07.726Z,857.06
2022-12-28T07:51:07.728Z,857.06
2022-12-28T07:52:07.725Z,857.06
2022-12-28T07:53:07.723Z,857.04
2022-12-28T07:54:07.744Z,857.06
2022-12-28T07:55:07.672Z,857.02
2022-12-28T07:56:07.661Z,857.00
2022-12-28T07:57:07.751Z,857.05
2022-12-28T07:58:07.640Z,857.05
2022-12-28T07:59:07.676Z,856.96
2022-12-28T08:00:07.619Z,856.97
2022-12-28T08:01:07.781Z,856.97
2022-12-28T08:02:07.706Z,856.94
2022-12-28T08:03:07.724Z,856.94
2022-12-28T08:04:07.575Z,856.99
2022-12-28T08:05:07.584Z,856.93
2022-12-28T08:06:07.562Z,856.97
2022-12-28T08:07:07.543Z,857.00
2022-12-28T08:08:07.539Z,857.01
2022-12-28T08:09:07.563Z,856.97
2022-12-28T08:10:07.526Z,856.95
2022-12-28T08:11:07.526Z,857.02
2022-12-28T08:12:07.501Z,857.01
2022-12-28T08:13:07.478Z,856.98
2022-12-28T08:14:07.498Z,856.99
2022-12-28T08:15:07.463Z,856.99
2022-12-28T08:16:07.524Z,857.00
2022-12-28T08:17:07.467Z,857.02
2022-12-28T08:18:07.430Z,857.07
2022-12-28T08:19:07.462Z,857.08
2022-12-28T08:20:07.407Z,857.08
2022-12-28T08:21:07.390Z,857.06
2022-12-28T08:22:07.394Z,857.11
2022-12-28T08:23:07.402Z,857.07
2022-12-28T08:24:07.363Z,857.09
2022-12-28T08:25:07.362Z,857.14
2022-12-28T08:26:07.346Z,857.15
2022-12-28T08:27:07.333Z,857.11
2022-12-28T08:28:07.320Z,857.07
2022-12-28T08:29:07.320Z,857.08
2022-12-28T08:30:07.316Z,857.05
2022-12-28T08:31:07.367Z,857.10
2022-12-28T08:32:07.279Z,857.11
2022-12-28T08:33:07.263Z,857.09
2022-12-28T08:34:07.261Z,857.14
2022-12-28T08:35:07.261Z,857.18
2022-12-28T08:36:07.240Z,857.16
2022-12-28T08:37:07.231Z,857.22
2022-12-28T08:38:07.217Z,857.19
2022-12-28T08:39:07.218Z,857.22
2022-12-28T08:40:07.193Z,857.28
2022-12-28T08:41:07.205Z,857.32
2022-12-28T08:42:07.168Z,857.27
2022-12-28T08:43:07.164Z,857.29
2022-12-28T08:44:07.147Z,857.31
2022-12-28T08:45:07.141Z,857.35
2022-12-28T08:46:07.260Z,857.31
2022-12-28T08:47:07.159Z,857.35
2022-12-28T08:48:07.106Z,857.33
2022-12-28T08:49:07.100Z,857.33
2022-12-28T08:50:07.088Z,857.34
2022-12-28T08:51:07.105Z,857.36
2022-12-28T08:52:07.062Z,857.37
2022-12-28T08:53:07.083Z,857.38
2022-12-28T08:54:07.040Z,857.37
2022-12-28T08:55:07.034Z,857.37
2022-12-28T08:56:07.199Z,857.36
2022-12-28T08:57:07.013Z,857.38
2022-12-28T08:58:07.000Z,857.34
2022-12-28T08:59:07.028Z,857.39
2022-12-28T09:00:06.978Z,857.34
2022-12-28T09:01:07.117Z,857.29
2022-12-28T09:02:07.145Z,857.28
2022-12-28T09:03:07.080Z,857.31
2022-12-28T09:04:06.935Z,857.31
2022-12-28T09:05:06.937Z,857.29
2022-12-28T09:06:06.931Z,857.33
2022-12-28T09:07:06.930Z,857.30
2022-12-28T09:08:06.907Z,857.31
2022-12-28T09:09:07.325Z,857.25
2022-12-28T09:10:06.964Z,857.24
2022-12-28T09:11:06.892Z,857.28
2022-12-28T09:12:06.852Z,857.27
2022-12-28T09:13:06.860Z,857.26
2022-12-28T09:14:06.841Z,857.25
2022-12-28T09:15:06.827Z,857.30
2022-12-28T09:16:06.955Z,857.27
2022-12-28T09:17:06.810Z,857.28
2022-12-28T09:18:06.799Z,857.29
2022-12-28T09:19:06.783Z,857.25
2022-12-28T09:20:06.776Z,857.24
2022-12-28T09:21:06.770Z,857.23
2022-12-28T09:22:06.747Z,857.27
2022-12-28T09:23:06.759Z,857.26
2022-12-28T09:24:06.735Z,857.30
2022-12-28T09:25:06.720Z,857.28
2022-12-28T09:26:06.704Z,857.27
2022-12-28T09:27:06.695Z,857.21
2022-12-28T09:28:06.792Z,857.26
2022-12-28T09:29:06.685Z,857.23
2022-12-28T09:30:06.673Z,857.24
2022-12-28T09:31:06.699Z,857.25
2022-12-28T09:32:06.642Z,857.24
2022-12-28T09:33:06.635Z,857.21
2022-12-28T09:35:07.615Z,857.19
2022-12-28T09:36:06.604Z,857.19
2022-12-28T09:37:06.625Z,857.22
2022-12-28T09:38:06.598Z,857.22
2022-12-28T09:39:06.655Z,857.20
2022-12-28T09:40:06.577Z,857.15
2022-12-28T09:41:06.550Z,857.18
2022-12-28T09:42:06.545Z,857.18
2022-12-28T09:43:06.534Z,857.18
2022-12-28T09:44:06.535Z,857.19
2022-12-28T09:45:06.510Z,857.25
2022-12-28T09:46:06.508Z,857.23
2022-12-28T09:47:06.488Z,857.24
2022-12-28T09:48:06.473Z,857.23
2022-12-28T09:49:06.472Z,857.24
2022-12-28T09:50:06.473Z,857.18
2022-12-28T09:51:06.444Z,857.18
2022-12-28T09:52:06.439Z,857.22
2022-12-28T09:53:06.424Z,857.24
2022-12-28T09:54:06.428Z,857.24
2022-12-28T09:55:06.424Z,857.26
2022-12-28T09:56:06.421Z,857.19
2022-12-28T09:57:06.386Z,857.19
2022-12-28T09:58:06.380Z,857.10
2022-12-28T09:59:06.365Z,857.17
2022-12-28T10:00:06.349Z,857.15
2022-12-28T10:01:06.391Z,857.11
2022-12-28T10:02:06.484Z,857.07
2022-12-28T10:03:06.370Z,857.06
2022-12-28T10:04:06.304Z,857.01
2022-12-28T10:05:06.297Z,856.97
2022-12-28T10:06:06.280Z,857.00
2022-12-28T10:07:06.277Z,857.05
2022-12-28T10:08:06.285Z,857.02
2022-12-28T10:09:06.255Z,857.01
2022-12-28T10:10:06.255Z,857.02
2022-12-28T10:11:06.257Z,857.02
2022-12-28T10:12:06.222Z,856.98
2022-12-28T10:13:09.366Z,856.96
2022-12-28T10:14:07.208Z,856.95
2022-12-28T10:15:06.204Z,856.99
2022-12-28T10:16:06.222Z,856.92
2022-12-28T10:17:06.168Z,856.93
2022-12-28T10:18:06.157Z,856.95
2022-12-28T10:19:06.151Z,856.96
2022-12-28T10:20:06.147Z,856.95
2022-12-28T10:21:06.126Z,856.95
2022-12-28T10:22:06.126Z,856.91
2022-12-28T10:23:06.147Z,856.97
2022-12-28T10:24:31.235Z,856.96
2022-12-28T10:25:07.078Z,856.90
2022-12-28T10:26:06.107Z,856.96
2022-12-28T10:27:06.078Z,856.91
2022-12-28T10:28:06.048Z,856.90
2022-12-28T10:29:06.048Z,856.93
2022-12-28T10:30:06.024Z,856.91
2022-12-28T10:31:06.071Z,856.93
2022-12-28T10:32:05.999Z,856.79
2022-12-28T10:33:07.755Z,856.79
2022-12-28T10:34:05.980Z,856.81
2022-12-28T10:35:05.980Z,856.80
2022-12-28T10:36:05.967Z,856.80
2022-12-28T10:37:05.973Z,856.81
2022-12-28T10:38:05.940Z,856.74
2022-12-28T10:39:05.937Z,856.74
2022-12-28T10:40:05.915Z,856.72
2022-12-28T10:41:05.925Z,856.71
2022-12-28T10:42:05.895Z,856.69
2022-12-28T10:43:10.890Z,856.68
2022-12-28T10:44:38.009Z,856.66
2022-12-28T10:45:06.882Z,856.56
2022-12-28T10:46:05.852Z,856.54
2022-12-28T10:47:05.901Z,856.50
2022-12-28T10:48:05.831Z,856.47
2022-12-28T10:49:08.712Z,856.50
2022-12-28T10:51:06.798Z,856.45
2022-12-28T10:52:05.787Z,856.47
2022-12-28T10:53:05.780Z,856.39
2022-12-28T10:54:05.765Z,856.34
2022-12-28T10:55:08.168Z,856.33
2022-12-28T10:56:05.753Z,856.30
2022-12-28T10:57:05.734Z,856.26
2022-12-28T10:58:34.333Z,856.25
2022-12-28T10:59:06.730Z,856.26
2022-12-28T11:00:05.699Z,856.21
2022-12-28T11:01:06.645Z,856.19
2022-12-28T11:02:05.937Z,856.19
2022-12-28T11:03:05.692Z,856.15
2022-12-28T11:04:05.654Z,856.15
2022-12-28T11:05:05.647Z,856.18
2022-12-28T11:06:05.636Z,856.17
2022-12-28T11:07:05.690Z,856.12
2022-12-28T11:08:05.615Z,856.16
2022-12-28T11:09:05.605Z,856.11
2022-12-28T11:10:05.605Z,856.10
2022-12-28T11:11:05.586Z,856.11
2022-12-28T11:12:05.577Z,856.10
2022-12-28T11:13:05.617Z,855.96
2022-12-28T11:14:05.550Z,856.01
2022-12-28T11:15:05.562Z,855.99
2022-12-28T11:16:05.597Z,855.99
2022-12-28T11:17:05.514Z,855.96
2022-12-28T11:18:05.514Z,855.97
2022-12-28T11:19:05.519Z,855.94
2022-12-28T11:20:05.483Z,855.94
2022-12-28T11:21:05.482Z,855.95
2022-12-28T11:22:05.464Z,855.95
2022-12-28T11:23:05.458Z,855.99
2022-12-28T11:24:05.467Z,855.95
2022-12-28T11:25:05.456Z,855.94
2022-12-28T11:26:05.414Z,855.96
2022-12-28T11:27:05.413Z,855.88
2022-12-28T11:28:05.396Z,855.90
2022-12-28T11:29:05.386Z,855.91
2022-12-28T11:30:05.382Z,855.83
2022-12-28T11:31:05.398Z,855.85
2022-12-28T11:32:05.356Z,855.81
2022-12-28T11:33:05.343Z,855.85
2022-12-28T11:34:05.327Z,855.82
2022-12-28T11:35:05.339Z,855.80
2022-12-28T11:36:09.893Z,855.74
2022-12-28T11:37:05.326Z,855.75
2022-12-28T11:38:05.285Z,855.76
2022-12-28T11:39:05.279Z,855.71
2022-12-28T11:40:05.283Z,855.68
2022-12-28T11:41:05.276Z,855.67
2022-12-28T11:43:06.261Z,855.65
2022-12-28T11:44:05.229Z,855.61
2022-12-28T11:45:05.224Z,855.65
2022-12-28T11:46:05.280Z,855.62
2022-12-28T11:47:05.236Z,855.59
2022-12-28T11:48:05.191Z,855.61
2022-12-28T11:49:05.200Z,855.58
2022-12-28T11:50:05.155Z,855.62
2022-12-28T11:51:05.168Z,855.61
2022-12-28T11:52:05.138Z,855.58
2022-12-28T11:53:10.493Z,855.65
2022-12-28T11:54:06.115Z,855.63
2022-12-28T11:55:05.132Z,855.60
2022-12-28T11:56:05.093Z,855.59
2022-12-28T11:57:05.083Z,855.63
2022-12-28T11:58:05.094Z,855.61
2022-12-28T11:59:05.061Z,855.58
2022-12-28T12:00:05.053Z,855.59
2022-12-28T12:01:05.134Z,855.56
2022-12-28T12:02:05.107Z,855.54
2022-12-28T12:03:05.085Z,855.53
2022-12-28T12:04:05.015Z,855.56
2022-12-28T12:05:04.996Z,855.49
2022-12-28T12:06:05.004Z,855.54
2022-12-28T12:07:05.011Z,855.54
2022-12-28T12:08:04.973Z,855.54
2022-12-28T12:09:04.955Z,855.50
2022-12-28T12:10:04.936Z,855.52
2022-12-28T12:11:04.930Z,855.52
2022-12-28T12:12:04.917Z,855.51
2022-12-28T12:13:04.934Z,855.53
2022-12-28T12:14:04.908Z,855.49
2022-12-28T12:15:04.887Z,855.45
2022-12-28T12:16:04.874Z,855.42
2022-12-28T12:17:04.927Z,855.45
2022-12-28T12:18:04.859Z,855.45
2022-12-28T12:19:04.873Z,855.42
2022-12-28T12:20:04.830Z,855.43
2022-12-28T12:21:07.649Z,855.41
2022-12-28T12:22:05.819Z,855.41
2022-12-28T12:23:04.809Z,855.39
2022-12-28T12:24:04.857Z,855.37
2022-12-28T12:25:04.819Z,855.33
2022-12-28T12:26:04.764Z,855.30
2022-12-28T12:27:11.776Z,855.35
2022-12-28T12:28:05.756Z,855.38
2022-12-28T12:29:04.740Z,855.33
2022-12-28T12:30:04.722Z,855.32
2022-12-28T12:31:04.785Z,855.33